sensor_id;sensor_type;location;lat;lon;timestamp;temperature;humidity
21001;DHT22;10658;50.920;12.238;2022-12-11T00:02:48;-1.40;99.90
21001;DHT22;10658;50.920;12.238;2022-12-11T00:06:49;-1.40;99.90
21001;DHT22;10658;50.920;12.238;2022-12-11T00:10:50;-1.40;99.90
21001;DHT22;10658;50.920;12.238;2022-12-11T00:14:51;-1.50;99.90
21001;DHT22;10658;50.920;12.238;2022-12-11T00:18:53;-1.50;99.90
21001;DHT22;10658;50.920;12.238;2022-12-11T00:22:54;-1.50;99.90
21001;DHT22;10658;50.920;12.238;2022-12-11T00:26:55;-1.50;99.90
21001;DHT22;10658;50.920;12.238;2022-12-11T00:30:56;-1.50;99.90
21001;DHT22;10658;50.920;12.238;2022-12-11T00:34:57;-1.60;99.90
21001;DHT22;10658;50.920;12.238;2022-12-11T00:39:01;-1.60;99.90
21001;DHT22;10658;50.920;12.238;2022-12-11T00:43:03;-1.60;99.90
21001;DHT22;10658;50.920;12.238;2022-12-11T00:47:05;-1.60;99.90
21001;DHT22;10658;50.920;12.238;2022-12-11T00:51:06;-1.70;99.90
21001;DHT22;10658;50.920;12.238;2022-12-11T00:55:07;-1.70;99.90
21001;DHT22;10658;50.920;12.238;2022-12-11T00:59:09;-1.70;99.90
21001;DHT22;10658;50.920;12.238;2022-12-11T01:03:12;-1.60;99.90
21001;DHT22;10658;50.920;12.238;2022-12-11T01:07:14;-1.70;99.90
21001;DHT22;10658;50.920;12.238;2022-12-11T01:11:16;-1.70;99.90
21001;DHT22;10658;50.920;12.238;2022-12-11T01:15:18;-1.70;99.90
21001;DHT22;10658;50.920;12.238;2022-12-11T01:19:22;-1.80;99.90
21001;DHT22;10658;50.920;12.238;2022-12-11T01:23:24;-1.80;99.90
21001;DHT22;10658;50.920;12.238;2022-12-11T01:27:25;-1.80;99.90
21001;DHT22;10658;50.920;12.238;2022-12-11T01:31:26;-1.80;99.90
21001;DHT22;10658;50.920;12.238;2022-12-11T01:35:28;-1.80;99.90
21001;DHT22;10658;50.920;12.238;2022-12-11T01:39:29;-1.90;99.90
21001;DHT22;10658;50.920;12.238;2022-12-11T01:43:30;-1.90;99.90
21001;DHT22;10658;50.920;12.238;2022-12-11T01:47:32;-1.80;99.90
21001;DHT22;10658;50.920;12.238;2022-12-11T01:51:41;-1.90;99.90
21001;DHT22;10658;50.920;12.238;2022-12-11T01:55:46;-1.90;99.90
21001;DHT22;10658;50.920;12.238;2022-12-11T01:59:48;-1.90;99.90
21001;DHT22;10658;50.920;12.238;2022-12-11T02:03:49;-1.90;99.90
21001;DHT22;10658;50.920;12.238;2022-12-11T02:07:54;-1.90;99.90
21001;DHT22;10658;50.920;12.238;2022-12-11T02:20:26;-2.00;99.90
21001;DHT22;10658;50.920;12.238;2022-12-11T02:29:11;-2.00;99.90
21001;DHT22;10658;50.920;12.238;2022-12-11T02:33:14;-2.00;99.90
21001;DHT22;10658;50.920;12.238;2022-12-11T02:37:20;-2.00;99.90
21001;DHT22;10658;50.920;12.238;2022-12-11T02:41:23;-2.00;99.90
21001;DHT22;10658;50.920;12.238;2022-12-11T02:45:27;-2.00;99.90
21001;DHT22;10658;50.920;12.238;2022-12-11T02:49:29;-2.00;99.90
21001;DHT22;10658;50.920;12.238;2022-12-11T02:53:33;-2.00;99.90
21001;DHT22;10658;50.920;12.238;2022-12-11T02:57:54;-2.10;99.90
21001;DHT22;10658;50.920;12.238;2022-12-11T03:01:56;-2.10;99.90
21001;DHT22;10658;50.920;12.238;2022-12-11T03:05:58;-2.10;99.90
21001;DHT22;10658;50.920;12.238;2022-12-11T03:10:01;-2.10;99.90
21001;DHT22;10658;50.920;12.238;2022-12-11T03:14:02;-2.20;99.90
21001;DHT22;10658;50.920;12.238;2022-12-11T03:18:15;-2.20;99.90
21001;DHT22;10658;50.920;12.238;2022-12-11T03:22:22;-2.10;99.90
21001;DHT22;10658;50.920;12.238;2022-12-11T03:26:28;-2.20;99.90
21001;DHT22;10658;50.920;12.238;2022-12-11T03:30:35;-2.20;99.90
21001;DHT22;10658;50.920;12.238;2022-12-11T03:38:52;-2.30;99.90
21001;DHT22;10658;50.920;12.238;2022-12-11T03:42:56;-2.30;99.90
21001;DHT22;10658;50.920;12.238;2022-12-11T03:46:59;-2.40;99.90
21001;DHT22;10658;50.920;12.238;2022-12-11T03:51:04;-2.40;99.90
21001;DHT22;10658;50.920;12.238;2022-12-11T03:55:06;-2.40;99.90
21001;DHT22;10658;50.920;12.238;2022-12-11T03:59:08;-2.50;99.90
21001;DHT22;10658;50.920;12.238;2022-12-11T04:03:10;-2.50;99.90
21001;DHT22;10658;50.920;12.238;2022-12-11T04:07:18;-2.50;99.90
21001;DHT22;10658;50.920;12.238;2022-12-11T04:11:20;-2.50;99.90
21001;DHT22;10658;50.920;12.238;2022-12-11T04:15:37;-2.50;99.90
21001;DHT22;10658;50.920;12.238;2022-12-11T04:19:39;-2.40;99.90
21001;DHT22;10658;50.920;12.238;2022-12-11T04:23:59;-2.40;99.90
21001;DHT22;10658;50.920;12.238;2022-12-11T04:28:15;-2.50;99.90
21001;DHT22;10658;50.920;12.238;2022-12-11T04:32:17;-2.50;99.90
21001;DHT22;10658;50.920;12.238;2022-12-11T04:36:18;-2.50;99.90
21001;DHT22;10658;50.920;12.238;2022-12-11T04:40:20;-2.50;99.90
21001;DHT22;10658;50.920;12.238;2022-12-11T04:44:23;-2.50;99.90
21001;DHT22;10658;50.920;12.238;2022-12-11T04:48:24;-2.50;99.90
21001;DHT22;10658;50.920;12.238;2022-12-11T04:52:24;-2.50;99.90
21001;DHT22;10658;50.920;12.238;2022-12-11T04:56:26;-2.50;99.90
21001;DHT22;10658;50.920;12.238;2022-12-11T05:00:28;-2.60;99.90
21001;DHT22;10658;50.920;12.238;2022-12-11T05:04:33;-2.50;99.90
21001;DHT22;10658;50.920;12.238;2022-12-11T05:08:35;-2.70;99.90
21001;DHT22;10658;50.920;12.238;2022-12-11T05:12:37;-2.60;99.90
21001;DHT22;10658;50.920;12.238;2022-12-11T05:16:38;-2.70;99.90
21001;DHT22;10658;50.920;12.238;2022-12-11T05:20:40;-2.60;99.90
21001;DHT22;10658;50.920;12.238;2022-12-11T05:24:41;-2.60;99.90
21001;DHT22;10658;50.920;12.238;2022-12-11T05:28:42;-2.60;99.90
21001;DHT22;10658;50.920;12.238;2022-12-11T05:32:44;-2.60;99.90
21001;DHT22;10658;50.920;12.238;2022-12-11T05:36:45;-2.60;99.90
21001;DHT22;10658;50.920;12.238;2022-12-11T05:41:00;-2.60;99.90
21001;DHT22;10658;50.920;12.238;2022-12-11T05:45:01;-2.60;99.90
21001;DHT22;10658;50.920;12.238;2022-12-11T05:49:04;-2.70;99.90
21001;DHT22;10658;50.920;12.238;2022-12-11T05:53:09;-2.70;99.90
21001;DHT22;10658;50.920;12.238;2022-12-11T05:57:10;-2.70;99.90
21001;DHT22;10658;50.920;12.238;2022-12-11T06:01:14;-2.80;99.90
21001;DHT22;10658;50.920;12.238;2022-12-11T06:05:15;-2.80;99.90
21001;DHT22;10658;50.920;12.238;2022-12-11T06:09:16;-2.70;99.90
21001;DHT22;10658;50.920;12.238;2022-12-11T06:13:19;-2.80;99.90
21001;DHT22;10658;50.920;12.238;2022-12-11T06:17:20;-2.90;99.90
21001;DHT22;10658;50.920;12.238;2022-12-11T06:21:30;-2.90;99.90
21001;DHT22;10658;50.920;12.238;2022-12-11T06:25:32;-2.80;99.90
21001;DHT22;10658;50.920;12.238;2022-12-11T06:29:56;-2.80;99.90
21001;DHT22;10658;50.920;12.238;2022-12-11T06:33:57;-2.80;99.90
21001;DHT22;10658;50.920;12.238;2022-12-11T06:37:58;-2.90;99.90
21001;DHT22;10658;50.920;12.238;2022-12-11T06:42:00;-3.00;99.90
21001;DHT22;10658;50.920;12.238;2022-12-11T06:46:03;-3.00;99.90
21001;DHT22;10658;50.920;12.238;2022-12-11T06:50:05;-3.10;99.90
21001;DHT22;10658;50.920;12.238;2022-12-11T06:54:08;-3.10;99.90
21001;DHT22;10658;50.920;12.238;2022-12-11T06:58:09;-3.10;99.90
21001;DHT22;10658;50.920;12.238;2022-12-11T07:02:14;-3.00;99.90
21001;DHT22;10658;50.920;12.238;2022-12-11T07:06:16;-2.90;99.90
21001;DHT22;10658;50.920;12.238;2022-12-11T07:10:18;-3.00;99.90
21001;DHT22;10658;50.920;12.238;2022-12-11T07:14:19;-3.00;99.90
21001;DHT22;10658;50.920;12.238;2022-12-11T07:18:20;-3.10;99.90
21001;DHT22;10658;50.920;12.238;2022-12-11T07:22:43;-3.10;99.90
21001;DHT22;10658;50.920;12.238;2022-12-11T07:26:44;-3.10;99.90
21001;DHT22;10658;50.920;12.238;2022-12-11T07:30:46;-3.00;99.90
21001;DHT22;10658;50.920;12.238;2022-12-11T07:34:50;-3.00;99.90
21001;DHT22;10658;50.920;12.238;2022-12-11T07:38:52;-2.90;99.90
21001;DHT22;10658;50.920;12.238;2022-12-11T07:42:54;-2.90;99.90
21001;DHT22;10658;50.920;12.238;2022-12-11T07:46:56;-2.80;99.90
21001;DHT22;10658;50.920;12.238;2022-12-11T07:55:09;-2.80;99.90
21001;DHT22;10658;50.920;12.238;2022-12-11T07:59:12;-2.80;99.90
21001;DHT22;10658;50.920;12.238;2022-12-11T08:03:15;-2.70;99.90
21001;DHT22;10658;50.920;12.238;2022-12-11T08:07:17;-2.50;99.90
21001;DHT22;10658;50.920;12.238;2022-12-11T08:11:19;-2.40;99.90
21001;DHT22;10658;50.920;12.238;2022-12-11T08:15:21;-2.40;99.90
21001;DHT22;10658;50.920;12.238;2022-12-11T08:19:22;-2.40;99.90
21001;DHT22;10658;50.920;12.238;2022-12-11T08:23:23;-2.50;99.90
21001;DHT22;10658;50.920;12.238;2022-12-11T08:27:25;-2.50;99.90
21001;DHT22;10658;50.920;12.238;2022-12-11T08:31:26;-2.50;99.90
21001;DHT22;10658;50.920;12.238;2022-12-11T08:35:30;-2.50;99.90
21001;DHT22;10658;50.920;12.238;2022-12-11T08:39:31;-2.40;99.90
21001;DHT22;10658;50.920;12.238;2022-12-11T08:43:33;-2.40;99.90
21001;DHT22;10658;50.920;12.238;2022-12-11T08:47:35;-2.40;99.90
21001;DHT22;10658;50.920;12.238;2022-12-11T08:51:36;-2.40;99.90
21001;DHT22;10658;50.920;12.238;2022-12-11T08:55:38;-2.40;99.90
21001;DHT22;10658;50.920;12.238;2022-12-11T08:59:39;-2.30;99.90
21001;DHT22;10658;50.920;12.238;2022-12-11T09:03:59;-2.30;99.90
21001;DHT22;10658;50.920;12.238;2022-12-11T09:08:01;-2.30;99.90
21001;DHT22;10658;50.920;12.238;2022-12-11T09:12:03;-2.20;99.90
21001;DHT22;10658;50.920;12.238;2022-12-11T09:16:06;-2.20;99.90
21001;DHT22;10658;50.920;12.238;2022-12-11T09:20:09;-2.10;99.90
21001;DHT22;10658;50.920;12.238;2022-12-11T09:24:12;-2.20;99.90
21001;DHT22;10658;50.920;12.238;2022-12-11T09:28:13;-2.20;99.90
21001;DHT22;10658;50.920;12.238;2022-12-11T09:32:14;-2.20;99.90
21001;DHT22;10658;50.920;12.238;2022-12-11T09:36:15;-2.20;99.90
21001;DHT22;10658;50.920;12.238;2022-12-11T09:40:16;-2.20;99.90
21001;DHT22;10658;50.920;12.238;2022-12-11T09:44:48;-2.10;99.90
21001;DHT22;10658;50.920;12.238;2022-12-11T09:48:50;-2.00;99.90
21001;DHT22;10658;50.920;12.238;2022-12-11T09:53:17;-1.90;99.90
21001;DHT22;10658;50.920;12.238;2022-12-11T10:19:11;-1.90;99.90
21001;DHT22;10658;50.920;12.238;2022-12-11T10:23:39;-1.90;99.90
21001;DHT22;10658;50.920;12.238;2022-12-11T10:27:43;-1.70;99.90
21001;DHT22;10658;50.920;12.238;2022-12-11T10:31:53;-1.70;99.90
21001;DHT22;10658;50.920;12.238;2022-12-11T10:35:57;-1.60;99.90
21001;DHT22;10658;50.920;12.238;2022-12-11T10:39:58;-1.50;99.90
21001;DHT22;10658;50.920;12.238;2022-12-11T10:44:00;-1.50;99.90
21001;DHT22;10658;50.920;12.238;2022-12-11T10:48:03;-1.60;99.90
21001;DHT22;10658;50.920;12.238;2022-12-11T10:56:32;-1.70;99.90
21001;DHT22;10658;50.920;12.238;2022-12-11T11:00:35;-1.80;99.90
21001;DHT22;10658;50.920;12.238;2022-12-11T11:04:40;-1.70;99.90
21001;DHT22;10658;50.920;12.238;2022-12-11T11:08:50;-1.70;99.90
21001;DHT22;10658;50.920;12.238;2022-12-11T11:12:59;-1.70;99.90
21001;DHT22;10658;50.920;12.238;2022-12-11T11:17:01;-1.70;99.90
21001;DHT22;10658;50.920;12.238;2022-12-11T11:21:03;-1.60;99.90
21001;DHT22;10658;50.920;12.238;2022-12-11T11:25:04;-1.60;99.90
21001;DHT22;10658;50.920;12.238;2022-12-11T11:29:05;-1.60;99.90
21001;DHT22;10658;50.920;12.238;2022-12-11T11:33:20;-1.50;99.90
21001;DHT22;10658;50.920;12.238;2022-12-11T11:37:29;-1.50;99.90
21001;DHT22;10658;50.920;12.238;2022-12-11T11:41:56;-1.40;99.90
21001;DHT22;10658;50.920;12.238;2022-12-11T11:46:24;-1.40;99.90
21001;DHT22;10658;50.920;12.238;2022-12-11T11:50:32;-1.40;99.90
21001;DHT22;10658;50.920;12.238;2022-12-11T11:54:42;-1.40;99.90
21001;DHT22;10658;50.920;12.238;2022-12-11T11:59:02;-1.40;99.90
21001;DHT22;10658;50.920;12.238;2022-12-11T12:03:11;-1.40;99.90
21001;DHT22;10658;50.920;12.238;2022-12-11T12:07:44;-1.50;99.90
21001;DHT22;10658;50.920;12.238;2022-12-11T12:16:01;-1.60;99.90
21001;DHT22;10658;50.920;12.238;2022-12-11T12:24:54;-1.60;99.90
21001;DHT22;10658;50.920;12.238;2022-12-11T12:46:22;-1.60;99.90
21001;DHT22;10658;50.920;12.238;2022-12-11T12:50:50;-1.60;99.90
21001;DHT22;10658;50.920;12.238;2022-12-11T12:54:54;-1.80;99.90
21001;DHT22;10658;50.920;12.238;2022-12-11T12:59:24;-1.80;99.90
21001;DHT22;10658;50.920;12.238;2022-12-11T13:03:30;-1.80;99.90
21001;DHT22;10658;50.920;12.238;2022-12-11T13:07:32;-1.80;99.90
21001;DHT22;10658;50.920;12.238;2022-12-11T13:11:35;-1.90;99.90
21001;DHT22;10658;50.920;12.238;2022-12-11T13:15:39;-1.80;99.90
21001;DHT22;10658;50.920;12.238;2022-12-11T13:19:42;-1.90;99.90
21001;DHT22;10658;50.920;12.238;2022-12-11T13:23:43;-2.00;99.90
21001;DHT22;10658;50.920;12.238;2022-12-11T13:27:44;-2.20;99.90
21001;DHT22;10658;50.920;12.238;2022-12-11T13:31:56;-2.40;99.90
21001;DHT22;10658;50.920;12.238;2022-12-11T13:40:23;-2.30;99.90
21001;DHT22;10658;50.920;12.238;2022-12-11T13:44:28;-2.10;99.90
21001;DHT22;10658;50.920;12.238;2022-12-11T13:48:50;-2.10;99.90
21001;DHT22;10658;50.920;12.238;2022-12-11T13:52:56;-2.10;99.90
21001;DHT22;10658;50.920;12.238;2022-12-11T13:57:12;-2.30;99.90
21001;DHT22;10658;50.920;12.238;2022-12-11T14:01:29;-2.40;99.90
21001;DHT22;10658;50.920;12.238;2022-12-11T14:05:32;-2.40;99.90
21001;DHT22;10658;50.920;12.238;2022-12-11T14:09:38;-2.60;99.90
21001;DHT22;10658;50.920;12.238;2022-12-11T14:13:41;-2.70;99.90
21001;DHT22;10658;50.920;12.238;2022-12-11T14:17:45;-2.70;99.90
21001;DHT22;10658;50.920;12.238;2022-12-11T14:22:02;-2.50;99.90
21001;DHT22;10658;50.920;12.238;2022-12-11T14:26:17;-2.50;99.90
21001;DHT22;10658;50.920;12.238;2022-12-11T14:30:22;-2.60;99.90
21001;DHT22;10658;50.920;12.238;2022-12-11T14:34:44;-2.60;99.90
21001;DHT22;10658;50.920;12.238;2022-12-11T14:38:51;-2.60;99.90
21001;DHT22;10658;50.920;12.238;2022-12-11T14:42:56;-2.80;99.90
21001;DHT22;10658;50.920;12.238;2022-12-11T14:47:05;-2.90;99.90
21001;DHT22;10658;50.920;12.238;2022-12-11T14:51:14;-3.20;99.90
21001;DHT22;10658;50.920;12.238;2022-12-11T14:59:25;-3.40;99.90
21001;DHT22;10658;50.920;12.238;2022-12-11T15:03:34;-3.30;99.90
21001;DHT22;10658;50.920;12.238;2022-12-11T15:07:36;-3.50;99.90
21001;DHT22;10658;50.920;12.238;2022-12-11T15:11:38;-3.50;99.90
21001;DHT22;10658;50.920;12.238;2022-12-11T15:15:45;-3.50;99.90
21001;DHT22;10658;50.920;12.238;2022-12-11T15:19:52;-3.60;99.90
21001;DHT22;10658;50.920;12.238;2022-12-11T15:23:56;-3.60;99.90
21001;DHT22;10658;50.920;12.238;2022-12-11T15:27:59;-3.70;99.90
21001;DHT22;10658;50.920;12.238;2022-12-11T15:36:40;-3.70;99.90
21001;DHT22;10658;50.920;12.238;2022-12-11T15:40:41;-3.80;99.90
21001;DHT22;10658;50.920;12.238;2022-12-11T15:44:43;-3.80;99.90
21001;DHT22;10658;50.920;12.238;2022-12-11T15:48:46;-3.90;99.90
21001;DHT22;10658;50.920;12.238;2022-12-11T15:52:49;-4.00;99.90
21001;DHT22;10658;50.920;12.238;2022-12-11T15:56:51;-4.00;99.90
21001;DHT22;10658;50.920;12.238;2022-12-11T16:00:53;-4.00;99.90
21001;DHT22;10658;50.920;12.238;2022-12-11T16:04:55;-4.00;99.90
21001;DHT22;10658;50.920;12.238;2022-12-11T16:08:56;-4.10;99.90
21001;DHT22;10658;50.920;12.238;2022-12-11T16:12:58;-4.10;99.90
21001;DHT22;10658;50.920;12.238;2022-12-11T16:17:02;-4.10;99.90
21001;DHT22;10658;50.920;12.238;2022-12-11T16:21:04;-4.10;99.90
21001;DHT22;10658;50.920;12.238;2022-12-11T16:25:06;-4.10;99.90
21001;DHT22;10658;50.920;12.238;2022-12-11T16:29:09;-4.10;99.90
21001;DHT22;10658;50.920;12.238;2022-12-11T16:33:10;-4.20;99.90
21001;DHT22;10658;50.920;12.238;2022-12-11T16:37:12;-4.10;99.90
21001;DHT22;10658;50.920;12.238;2022-12-11T16:41:14;-4.20;99.90
21001;DHT22;10658;50.920;12.238;2022-12-11T16:45:20;-4.20;99.90
21001;DHT22;10658;50.920;12.238;2022-12-11T16:49:21;-4.10;99.90
21001;DHT22;10658;50.920;12.238;2022-12-11T16:53:23;-4.10;99.90
21001;DHT22;10658;50.920;12.238;2022-12-11T16:57:24;-4.20;99.90
21001;DHT22;10658;50.920;12.238;2022-12-11T17:01:26;-4.10;99.90
21001;DHT22;10658;50.920;12.238;2022-12-11T17:05:28;-4.10;99.90
21001;DHT22;10658;50.920;12.238;2022-12-11T17:09:30;-4.00;99.90
21001;DHT22;10658;50.920;12.238;2022-12-11T17:13:33;-4.00;99.90
21001;DHT22;10658;50.920;12.238;2022-12-11T17:17:35;-4.00;99.90
21001;DHT22;10658;50.920;12.238;2022-12-11T17:21:36;-3.80;99.90
21001;DHT22;10658;50.920;12.238;2022-12-11T17:25:41;-3.80;99.90
21001;DHT22;10658;50.920;12.238;2022-12-11T17:29:43;-3.60;99.90
21001;DHT22;10658;50.920;12.238;2022-12-11T17:33:46;-3.70;99.90
21001;DHT22;10658;50.920;12.238;2022-12-11T17:37:47;-3.80;99.90
21001;DHT22;10658;50.920;12.238;2022-12-11T17:41:49;-3.80;99.90
21001;DHT22;10658;50.920;12.238;2022-12-11T17:45:51;-3.90;99.90
21001;DHT22;10658;50.920;12.238;2022-12-11T17:49:53;-3.80;99.90
21001;DHT22;10658;50.920;12.238;2022-12-11T17:53:55;-3.80;99.90
21001;DHT22;10658;50.920;12.238;2022-12-11T17:57:56;-3.80;99.90
21001;DHT22;10658;50.920;12.238;2022-12-11T18:01:57;-3.80;99.90
21001;DHT22;10658;50.920;12.238;2022-12-11T18:06:20;-3.90;99.90
21001;DHT22;10658;50.920;12.238;2022-12-11T18:10:24;-3.90;99.90
21001;DHT22;10658;50.920;12.238;2022-12-11T18:14:25;-3.90;99.90
21001;DHT22;10658;50.920;12.238;2022-12-11T18:18:27;-3.90;99.90
21001;DHT22;10658;50.920;12.238;2022-12-11T18:22:29;-3.90;99.90
21001;DHT22;10658;50.920;12.238;2022-12-11T18:26:29;-3.90;99.90
21001;DHT22;10658;50.920;12.238;2022-12-11T18:30:30;-3.90;99.90
21001;DHT22;10658;50.920;12.238;2022-12-11T18:34:32;-3.90;99.90
21001;DHT22;10658;50.920;12.238;2022-12-11T18:38:34;-3.90;99.90
21001;DHT22;10658;50.920;12.238;2022-12-11T18:42:35;-3.90;99.90
21001;DHT22;10658;50.920;12.238;2022-12-11T18:46:36;-4.00;99.90
21001;DHT22;10658;50.920;12.238;2022-12-11T18:50:49;-4.00;99.90
21001;DHT22;10658;50.920;12.238;2022-12-11T18:54:50;-4.00;99.90
21001;DHT22;10658;50.920;12.238;2022-12-11T18:58:52;-4.00;99.90
21001;DHT22;10658;50.920;12.238;2022-12-11T19:02:53;-4.00;99.90
21001;DHT22;10658;50.920;12.238;2022-12-11T19:06:54;-4.00;99.90
21001;DHT22;10658;50.920;12.238;2022-12-11T19:10:57;-4.00;99.90
21001;DHT22;10658;50.920;12.238;2022-12-11T19:14:58;-4.00;99.90
21001;DHT22;10658;50.920;12.238;2022-12-11T19:19:07;-3.90;99.90
21001;DHT22;10658;50.920;12.238;2022-12-11T19:23:11;-3.90;99.90
21001;DHT22;10658;50.920;12.238;2022-12-11T19:27:12;-3.80;99.90
21001;DHT22;10658;50.920;12.238;2022-12-11T19:31:20;-3.80;99.90
21001;DHT22;10658;50.920;12.238;2022-12-11T19:35:21;-3.90;99.90
21001;DHT22;10658;50.920;12.238;2022-12-11T19:39:22;-3.90;99.90
21001;DHT22;10658;50.920;12.238;2022-12-11T19:43:23;-3.80;99.90
21001;DHT22;10658;50.920;12.238;2022-12-11T19:47:24;-3.90;99.90
21001;DHT22;10658;50.920;12.238;2022-12-11T19:51:29;-3.90;99.90
21001;DHT22;10658;50.920;12.238;2022-12-11T19:55:31;-3.80;99.90
21001;DHT22;10658;50.920;12.238;2022-12-11T19:59:33;-3.90;99.90
21001;DHT22;10658;50.920;12.238;2022-12-11T20:03:35;-3.80;99.90
21001;DHT22;10658;50.920;12.238;2022-12-11T20:07:36;-3.70;99.90
21001;DHT22;10658;50.920;12.238;2022-12-11T20:11:41;-3.90;99.90
21001;DHT22;10658;50.920;12.238;2022-12-11T20:15:42;-3.80;99.90
21001;DHT22;10658;50.920;12.238;2022-12-11T20:19:44;-3.80;99.90
21001;DHT22;10658;50.920;12.238;2022-12-11T20:23:45;-3.80;99.90
21001;DHT22;10658;50.920;12.238;2022-12-11T20:27:46;-3.80;99.90
21001;DHT22;10658;50.920;12.238;2022-12-11T20:31:49;-3.80;99.90
21001;DHT22;10658;50.920;12.238;2022-12-11T20:35:51;-3.70;99.90
21001;DHT22;10658;50.920;12.238;2022-12-11T20:39:52;-3.80;99.90
21001;DHT22;10658;50.920;12.238;2022-12-11T20:43:53;-3.80;99.90
21001;DHT22;10658;50.920;12.238;2022-12-11T20:47:55;-3.80;99.90
21001;DHT22;10658;50.920;12.238;2022-12-11T20:51:55;-3.80;99.90
21001;DHT22;10658;50.920;12.238;2022-12-11T20:55:57;-3.80;99.90
21001;DHT22;10658;50.920;12.238;2022-12-11T20:59:58;-3.80;99.90
21001;DHT22;10658;50.920;12.238;2022-12-11T21:04:01;-3.80;99.90
21001;DHT22;10658;50.920;12.238;2022-12-11T21:08:25;-3.80;99.90
21001;DHT22;10658;50.920;12.238;2022-12-11T21:12:27;-3.80;99.90
21001;DHT22;10658;50.920;12.238;2022-12-11T21:16:28;-3.80;99.90
21001;DHT22;10658;50.920;12.238;2022-12-11T21:20:29;-3.90;99.90
21001;DHT22;10658;50.920;12.238;2022-12-11T21:24:31;-3.80;99.90
21001;DHT22;10658;50.920;12.238;2022-12-11T21:28:32;-3.90;99.90
21001;DHT22;10658;50.920;12.238;2022-12-11T21:32:34;-3.80;99.90
21001;DHT22;10658;50.920;12.238;2022-12-11T21:36:35;-3.90;99.90
21001;DHT22;10658;50.920;12.238;2022-12-11T21:40:37;-3.90;99.90
21001;DHT22;10658;50.920;12.238;2022-12-11T21:44:39;-3.90;99.90
21001;DHT22;10658;50.920;12.238;2022-12-11T21:48:41;-4.00;99.90
21001;DHT22;10658;50.920;12.238;2022-12-11T21:52:43;-3.90;99.90
21001;DHT22;10658;50.920;12.238;2022-12-11T21:56:45;-3.90;99.90
21001;DHT22;10658;50.920;12.238;2022-12-11T22:00:46;-3.80;99.90
21001;DHT22;10658;50.920;12.238;2022-12-11T22:04:49;-3.90;99.90
21001;DHT22;10658;50.920;12.238;2022-12-11T22:08:50;-3.80;99.90
21001;DHT22;10658;50.920;12.238;2022-12-11T22:12:51;-3.70;99.90
21001;DHT22;10658;50.920;12.238;2022-12-11T22:16:54;-3.80;99.90
21001;DHT22;10658;50.920;12.238;2022-12-11T22:20:57;-3.80;99.90
21001;DHT22;10658;50.920;12.238;2022-12-11T22:24:59;-3.70;99.90
21001;DHT22;10658;50.920;12.238;2022-12-11T22:29:00;-3.70;99.90
21001;DHT22;10658;50.920;12.238;2022-12-11T22:33:02;-3.70;99.90
21001;DHT22;10658;50.920;12.238;2022-12-11T22:37:03;-3.70;99.90
21001;DHT22;10658;50.920;12.238;2022-12-11T22:41:28;-3.60;99.90
21001;DHT22;10658;50.920;12.238;2022-12-11T22:45:30;-3.60;99.90
21001;DHT22;10658;50.920;12.238;2022-12-11T22:49:32;-3.60;99.90
21001;DHT22;10658;50.920;12.238;2022-12-11T22:53:34;-3.60;99.90
21001;DHT22;10658;50.920;12.238;2022-12-11T22:57:35;-3.50;99.90
21001;DHT22;10658;50.920;12.238;2022-12-11T23:01:37;-3.50;99.90
21001;DHT22;10658;50.920;12.238;2022-12-11T23:05:40;-3.60;99.90
21001;DHT22;10658;50.920;12.238;2022-12-11T23:09:42;-3.60;99.90
21001;DHT22;10658;50.920;12.238;2022-12-11T23:13:43;-3.60;99.90
21001;DHT22;10658;50.920;12.238;2022-12-11T23:17:45;-3.60;99.90
21001;DHT22;10658;50.920;12.238;2022-12-11T23:21:46;-3.50;99.90
21001;DHT22;10658;50.920;12.238;2022-12-11T23:25:49;-3.50;99.90
21001;DHT22;10658;50.920;12.238;2022-12-11T23:29:51;-3.50;99.90
21001;DHT22;10658;50.920;12.238;2022-12-11T23:33:54;-3.50;99.90
21001;DHT22;10658;50.920;12.238;2022-12-11T23:37:55;-3.50;99.90
21001;DHT22;10658;50.920;12.238;2022-12-11T23:41:56;-3.50;99.90
21001;DHT22;10658;50.920;12.238;2022-12-11T23:45:57;-3.50;99.90
21001;DHT22;10658;50.920;12.238;2022-12-11T23:49:58;-3.50;99.90
21001;DHT22;10658;50.920;12.238;2022-12-11T23:54:00;-3.50;99.90
21001;DHT22;10658;50.920;12.238;2022-12-11T23:58:01;-3.50;99.90
